createdAt,value
2023-01-27T00:01:15.688Z,98307.67
2023-01-27T00:03:42.557Z,98310.75
2023-01-27T00:06:09.001Z,98309.37
2023-01-27T00:08:35.505Z,98308.02
2023-01-27T00:11:02.260Z,98304.61
2023-01-27T00:13:28.761Z,98305.28
2023-01-27T00:15:55.939Z,98304.44
2023-01-27T00:18:23.304Z,98307.19
2023-01-27T00:20:49.977Z,98310.95
2023-01-27T00:23:20.427Z,98310.77
2023-01-27T00:25:46.931Z,98312.66
2023-01-27T00:28:13.345Z,98314.90
2023-01-27T00:30:39.840Z,98313.89
2023-01-27T00:33:06.452Z,98315.27
2023-01-27T00:35:32.918Z,98317.30
2023-01-27T00:37:59.637Z,98317.30
2023-01-27T00:40:26.106Z,98313.70
2023-01-27T00:42:52.628Z,98317.27
2023-01-27T00:45:19.154Z,98318.09
2023-01-27T00:47:48.381Z,98314.69
2023-01-27T00:50:15.499Z,98317.08
2023-01-27T00:52:42.763Z,98319.12
2023-01-27T00:55:10.227Z,98323.16
2023-01-27T00:57:37.902Z,98319.57
2023-01-27T01:00:06.144Z,98321.44
2023-01-27T01:02:33.168Z,98320.91
2023-01-27T01:04:59.689Z,98313.60
2023-01-27T01:07:26.162Z,98310.02
2023-01-27T01:09:53.072Z,98309.01
2023-01-27T01:12:19.580Z,98306.78
2023-01-27T01:14:46.337Z,98304.74
2023-01-27T01:17:12.914Z,98305.11
2023-01-27T01:19:39.389Z,98303.77
2023-01-27T01:22:06.188Z,98297.48
2023-01-27T01:24:32.606Z,98294.09
2023-01-27T01:26:59.085Z,98295.64
2023-01-27T01:29:25.659Z,98292.93
2023-01-27T01:31:52.431Z,98290.87
2023-01-27T01:34:18.937Z,98291.23
2023-01-27T01:36:45.516Z,98290.36
2023-01-27T01:39:12.048Z,98287.27
2023-01-27T01:41:38.588Z,98287.92
2023-01-27T01:44:37.783Z,98292.34
2023-01-27T01:47:04.339Z,98292.38
2023-01-27T01:49:36.901Z,98293.41
2023-01-27T01:52:09.239Z,98291.91
2023-01-27T01:54:45.097Z,98287.00
2023-01-27T01:57:23.137Z,98288.88
2023-01-27T02:00:04.165Z,98287.86
2023-01-27T02:02:31.877Z,98280.75
2023-01-27T02:05:08.593Z,98289.12
2023-01-27T02:07:51.106Z,98288.79
2023-01-27T02:10:17.954Z,98288.29
2023-01-27T02:12:44.902Z,98288.29
2023-01-27T02:15:12.950Z,98291.02
2023-01-27T02:17:40.542Z,98292.37
2023-01-27T02:20:21.619Z,98294.60
2023-01-27T02:23:00.143Z,98289.32
2023-01-27T02:25:37.926Z,98288.98
2023-01-27T02:28:07.383Z,98288.33
2023-01-27T02:30:34.581Z,98287.64
2023-01-27T02:33:01.578Z,98287.79
2023-01-27T02:35:39.249Z,98287.42
2023-01-27T02:38:07.648Z,98285.56
2023-01-27T02:40:36.781Z,98284.89
2023-01-27T02:43:04.849Z,98287.93
2023-01-27T02:45:31.684Z,98287.25
2023-01-27T02:47:58.347Z,98291.98
2023-01-27T02:50:24.842Z,98293.54
2023-01-27T02:52:51.397Z,98294.58
2023-01-27T02:55:18.059Z,98297.30
2023-01-27T02:57:44.720Z,98296.45
2023-01-27T03:00:12.029Z,98290.67
2023-01-27T03:02:38.950Z,98291.70
2023-01-27T03:05:05.819Z,98289.66
2023-01-27T03:07:32.489Z,98294.98
2023-01-27T03:09:59.036Z,98292.92
2023-01-27T03:12:25.587Z,98298.88
2023-01-27T03:14:52.788Z,98298.55
2023-01-27T03:17:19.274Z,98299.38
2023-01-27T03:19:45.701Z,98304.69
2023-01-27T03:22:12.249Z,98305.52
2023-01-27T03:24:39.699Z,98300.92
2023-01-27T03:27:06.463Z,98303.30
2023-01-27T03:29:32.928Z,98303.30
2023-01-27T03:31:59.445Z,98304.31
2023-01-27T03:34:26.040Z,98307.21
2023-01-27T03:36:52.506Z,98308.73
2023-01-27T03:39:19.407Z,98308.89
2023-01-27T03:41:45.840Z,98308.21
2023-01-27T03:44:12.340Z,98305.15
2023-01-27T03:46:38.823Z,98297.83
2023-01-27T03:49:05.260Z,98295.98
2023-01-27T03:51:31.928Z,98297.52
2023-01-27T03:53:58.442Z,98294.29
2023-01-27T03:56:24.884Z,98294.76
2023-01-27T03:58:51.512Z,98287.11
2023-01-27T04:01:20.925Z,98287.30
2023-01-27T04:03:48.376Z,98286.63
2023-01-27T04:06:20.647Z,98283.24
2023-01-27T04:08:47.358Z,98288.36
2023-01-27T04:11:13.845Z,98284.77
2023-01-27T04:13:40.372Z,98279.50
2023-01-27T04:16:07.669Z,98284.44
2023-01-27T04:18:34.227Z,98287.67
2023-01-27T04:21:00.736Z,98283.60
2023-01-27T04:23:27.766Z,98283.42
2023-01-27T04:25:54.204Z,98282.23
2023-01-27T04:28:33.341Z,98279.67
2023-01-27T04:31:07.794Z,98274.08
2023-01-27T04:33:34.509Z,98278.84
2023-01-27T04:36:01.155Z,98274.08
2023-01-27T04:38:27.893Z,98274.77
2023-01-27T04:40:54.539Z,98275.64
2023-01-27T04:43:21.464Z,98280.24
2023-01-27T04:45:47.963Z,98281.79
2023-01-27T04:48:15.197Z,98280.94
2023-01-27T04:50:43.586Z,98277.19
2023-01-27T04:53:10.171Z,98281.63
2023-01-27T04:55:37.402Z,98281.98
2023-01-27T04:58:04.909Z,98282.65
2023-01-27T05:00:31.943Z,98281.27
2023-01-27T05:02:58.603Z,98281.77
2023-01-27T05:05:25.177Z,98280.27
2023-01-27T05:07:53.069Z,98280.77
2023-01-27T05:10:19.916Z,98280.96
2023-01-27T05:12:46.555Z,98283.00
2023-01-27T05:15:13.237Z,98286.89
2023-01-27T05:17:39.916Z,98291.31
2023-01-27T05:20:06.992Z,98295.90
2023-01-27T05:22:33.541Z,98299.30
2023-01-27T05:25:00.180Z,98299.31
2023-01-27T05:27:27.131Z,98299.64
2023-01-27T05:29:53.665Z,98303.22
2023-01-27T05:32:20.722Z,98302.70
2023-01-27T05:34:47.165Z,98306.45
2023-01-27T05:37:14.239Z,98307.64
2023-01-27T05:39:41.173Z,98308.66
2023-01-27T05:42:07.711Z,98303.23
2023-01-27T05:44:34.381Z,98304.06
2023-01-27T05:47:03.001Z,98309.52
2023-01-27T05:49:29.796Z,98305.75
2023-01-27T05:51:56.543Z,98302.86
2023-01-27T05:54:23.280Z,98305.42
2023-01-27T05:56:49.936Z,98304.23
2023-01-27T05:59:16.437Z,98311.21
2023-01-27T06:01:43.122Z,98309.48
2023-01-27T06:04:10.101Z,98309.31
2023-01-27T06:06:36.696Z,98303.85
2023-01-27T06:09:03.843Z,98301.81
2023-01-27T06:11:30.284Z,98301.14
2023-01-27T06:13:57.074Z,98300.46
2023-01-27T06:16:24.131Z,98299.45
2023-01-27T06:18:50.802Z,98298.43
2023-01-27T06:21:18.184Z,98302.35
2023-01-27T06:23:44.734Z,98302.17
2023-01-27T06:26:14.637Z,98303.17
2023-01-27T06:28:41.078Z,98306.74
2023-01-27T06:31:14.804Z,98308.95
2023-01-27T06:33:41.792Z,98307.41
2023-01-27T06:36:11.350Z,98307.59
2023-01-27T06:38:38.284Z,98313.20
2023-01-27T06:41:05.404Z,98313.69
2023-01-27T06:43:32.009Z,98314.20
2023-01-27T06:45:58.799Z,98309.58
2023-01-27T06:48:26.630Z,98309.23
2023-01-27T06:50:54.803Z,98314.65
2023-01-27T06:53:21.370Z,98312.44
2023-01-27T06:55:48.196Z,98308.70
2023-01-27T06:58:15.535Z,98310.20
2023-01-27T07:00:42.815Z,98315.29
2023-01-27T07:03:11.637Z,98310.83
2023-01-27T07:05:39.897Z,98310.29
2023-01-27T07:08:06.704Z,98313.50
2023-01-27T07:10:33.255Z,98316.18
2023-01-27T07:13:07.763Z,98312.60
2023-01-27T07:15:34.809Z,98313.45
2023-01-27T07:18:02.210Z,98314.14
2023-01-27T07:20:29.458Z,98323.83
2023-01-27T07:23:04.597Z,98319.74
2023-01-27T07:25:32.824Z,98324.49
2023-01-27T07:28:00.707Z,98323.77
2023-01-27T07:30:28.485Z,98323.58
2023-01-27T07:32:55.480Z,98318.28
2023-01-27T07:35:23.417Z,98320.48
2023-01-27T07:37:50.263Z,98327.75
2023-01-27T07:40:17.676Z,98327.02
2023-01-27T07:42:44.218Z,98331.19
2023-01-27T07:45:11.027Z,98335.58
2023-01-27T07:47:37.959Z,98339.10
2023-01-27T07:50:05.126Z,98343.83
2023-01-27T07:52:31.656Z,98346.46
2023-01-27T07:54:58.245Z,98347.88
2023-01-27T07:57:24.816Z,98351.67
2023-01-27T07:59:51.452Z,98348.14
2023-01-27T08:02:18.071Z,98346.30
2023-01-27T08:04:52.941Z,98342.98
2023-01-27T08:07:20.467Z,98340.95
2023-01-27T08:09:47.035Z,98342.11
2023-01-27T08:12:13.549Z,98347.52
2023-01-27T08:14:40.023Z,98347.77
2023-01-27T08:17:06.726Z,98347.66
2023-01-27T08:19:33.179Z,98348.83
2023-01-27T08:21:59.699Z,98348.57
2023-01-27T08:24:26.484Z,98350.73
2023-01-27T08:26:53.121Z,98352.08
2023-01-27T08:29:19.739Z,98354.61
2023-01-27T08:31:48.363Z,98354.24
2023-01-27T08:34:15.039Z,98356.46
2023-01-27T08:36:41.819Z,98353.73
2023-01-27T08:39:09.589Z,98353.31
2023-01-27T08:41:36.056Z,98352.36
2023-01-27T08:44:02.791Z,98350.61
2023-01-27T08:46:29.248Z,98356.37
2023-01-27T08:48:55.921Z,98357.62
2023-01-27T08:51:22.434Z,98361.89
2023-01-27T08:53:48.932Z,98368.97
2023-01-27T08:56:15.706Z,98369.63
2023-01-27T08:58:42.647Z,98369.30
2023-01-27T09:01:09.656Z,98365.18
2023-01-27T09:03:36.969Z,98367.52
2023-01-27T09:06:05.100Z,98369.52
2023-01-27T09:08:31.664Z,98372.91
2023-01-27T09:10:58.205Z,98369.83
2023-01-27T09:13:25.220Z,98369.95
2023-01-27T09:15:52.812Z,98364.09
2023-01-27T09:18:20.192Z,98363.56
2023-01-27T09:20:47.037Z,98356.48
2023-01-27T09:23:13.650Z,98355.45
2023-01-27T09:25:40.725Z,98356.02
2023-01-27T09:28:07.479Z,98355.38
2023-01-27T09:30:33.932Z,98352.52
2023-01-27T09:33:00.762Z,98345.86
2023-01-27T09:35:36.399Z,98334.79
2023-01-27T09:38:05.771Z,98330.16
2023-01-27T09:40:36.652Z,98332.59
2023-01-27T09:43:33.116Z,98330.84
2023-01-27T09:46:18.287Z,98327.84
2023-01-27T09:49:30.199Z,98329.74
2023-01-27T09:52:15.261Z,98328.74
2023-01-27T09:55:13.048Z,98330.83
2023-01-27T09:57:57.904Z,98332.84
2023-01-27T10:00:27.096Z,98330.61
2023-01-27T10:03:10.745Z,98336.71
2023-01-27T10:06:27.864Z,98334.73
2023-01-27T10:09:12.240Z,98334.34
2023-01-27T10:12:19.230Z,98335.17
2023-01-27T10:15:02.564Z,98335.94
2023-01-27T10:18:04.125Z,98339.86
2023-01-27T10:20:44.542Z,98336.29
2023-01-27T10:23:29.379Z,98339.94
2023-01-27T10:26:31.437Z,98337.21
2023-01-27T10:29:08.663Z,98331.41
2023-01-27T10:31:50.388Z,98329.71
2023-01-27T10:34:28.055Z,98337.70
2023-01-27T10:37:00.296Z,98340.44
2023-01-27T10:39:53.162Z,98337.55
2023-01-27T10:42:35.283Z,98336.44
2023-01-27T10:45:10.862Z,98342.07
2023-01-27T10:48:19.445Z,98347.73
2023-01-27T10:51:00.265Z,98347.86
2023-01-27T10:53:37.755Z,98352.16
2023-01-27T10:56:22.965Z,98345.73
2023-01-27T10:59:03.793Z,98351.75
2023-01-27T11:01:58.992Z,98350.48
2023-01-27T11:04:25.658Z,98349.51
2023-01-27T11:06:53.436Z,98357.56
2023-01-27T11:09:31.612Z,98352.43
2023-01-27T11:12:02.637Z,98351.69
2023-01-27T11:14:44.037Z,98348.77
2023-01-27T11:17:29.520Z,98346.54
2023-01-27T11:20:26.966Z,98342.42
2023-01-27T11:23:16.380Z,98339.23
2023-01-27T11:26:10.100Z,98333.28
2023-01-27T11:28:44.013Z,98332.09
2023-01-27T11:31:16.974Z,98323.39
2023-01-27T11:33:46.145Z,98316.32
2023-01-27T11:36:12.791Z,98314.84
2023-01-27T11:38:39.318Z,98307.82
2023-01-27T11:41:06.060Z,98307.85
2023-01-27T11:43:32.590Z,98306.14
2023-01-27T11:46:04.980Z,98302.54
2023-01-27T11:48:41.863Z,98302.67
2023-01-27T11:51:19.953Z,98303.84
2023-01-27T11:53:52.907Z,98296.30
2023-01-27T11:56:20.022Z,98293.95
2023-01-27T11:58:59.708Z,98299.23
2023-01-27T12:01:51.087Z,98299.30
2023-01-27T12:04:36.634Z,98302.89
2023-01-27T12:07:10.625Z,98309.95
2023-01-27T12:09:40.350Z,98309.02
2023-01-27T12:12:19.266Z,98311.66
2023-01-27T12:14:50.175Z,98311.75
2023-01-27T12:17:31.670Z,98309.77
2023-01-27T12:20:07.401Z,98308.42
2023-01-27T12:22:40.402Z,98309.48
2023-01-27T12:25:18.424Z,98309.65
2023-01-27T12:27:53.171Z,98309.18
2023-01-27T12:30:26.300Z,98307.13
2023-01-27T12:32:54.324Z,98309.31
2023-01-27T12:35:29.491Z,98309.13
2023-01-27T12:38:13.313Z,98311.15
2023-01-27T12:40:43.785Z,98315.27
2023-01-27T12:43:17.346Z,98316.82
2023-01-27T12:45:44.688Z,98314.64
2023-01-27T12:48:14.121Z,98314.98
2023-01-27T12:50:42.498Z,98315.70
2023-01-27T12:53:13.657Z,98316.05
2023-01-27T12:56:00.663Z,98321.36
2023-01-27T12:58:40.305Z,98313.84
2023-01-27T13:01:25.930Z,98309.91
2023-01-27T13:04:03.135Z,98311.11
2023-01-27T13:06:34.991Z,98310.95
2023-01-27T13:09:02.828Z,98317.79
2023-01-27T13:11:39.695Z,98319.48
2023-01-27T13:14:18.732Z,98320.88
2023-01-27T13:16:56.412Z,98318.34
2023-01-27T13:19:32.791Z,98322.81
2023-01-27T13:22:00.164Z,98323.84
2023-01-27T13:24:42.348Z,98326.06
2023-01-27T13:27:17.064Z,98316.70
2023-01-27T13:29:54.628Z,98314.15
2023-01-27T13:32:27.250Z,98310.77
2023-01-27T13:35:05.412Z,98312.64
2023-01-27T13:37:35.873Z,98316.58
2023-01-27T13:40:23.874Z,98319.48
2023-01-27T13:42:54.326Z,98321.52
2023-01-27T13:45:32.720Z,98321.00
2023-01-27T13:48:08.608Z,98328.51
2023-01-27T13:50:44.752Z,98326.45
2023-01-27T13:53:14.485Z,98329.36
2023-01-27T13:56:09.154Z,98332.27
2023-01-27T13:58:38.776Z,98330.38
2023-01-27T14:01:15.878Z,98335.50
2023-01-27T14:03:59.114Z,98344.54
2023-01-27T14:06:28.272Z,98348.30
2023-01-27T14:09:05.784Z,98347.11
2023-01-27T14:11:51.071Z,98346.60
2023-01-27T14:14:29.702Z,98354.76
2023-01-27T14:17:17.947Z,98362.25
2023-01-27T14:20:19.474Z,98361.41
2023-01-27T14:23:09.286Z,98365.00
2023-01-27T14:25:40.825Z,98367.23
2023-01-27T14:28:48.731Z,98370.14
2023-01-27T14:31:22.519Z,98368.81
2023-01-27T14:34:00.994Z,98363.86
2023-01-27T14:36:37.499Z,98356.38
2023-01-27T14:39:26.913Z,98356.06
2023-01-27T14:42:11.916Z,98352.51
2023-01-27T14:44:44.322Z,98361.40
2023-01-27T14:48:02.844Z,98367.91
2023-01-27T14:50:44.788Z,98364.18
2023-01-27T14:53:24.780Z,98365.57
2023-01-27T14:56:09.314Z,98365.77
2023-01-27T14:58:48.319Z,98374.82
2023-01-27T15:01:51.284Z,98368.03
2023-01-27T15:04:23.532Z,98370.77
2023-01-27T15:07:02.790Z,98368.06
2023-01-27T15:09:42.553Z,98368.75
2023-01-27T15:12:17.807Z,98371.84
2023-01-27T15:14:58.955Z,98369.83
2023-01-27T15:17:37.884Z,98370.35
2023-01-27T15:20:06.451Z,98369.67
2023-01-27T15:22:33.592Z,98368.84
2023-01-27T15:25:12.514Z,98372.27
2023-01-27T15:27:40.250Z,98369.36
2023-01-27T15:30:20.058Z,98373.46
2023-01-27T15:32:46.574Z,98368.51
2023-01-27T15:35:22.191Z,98368.52
2023-01-27T15:38:06.909Z,98371.08
2023-01-27T15:40:59.135Z,98375.54
2023-01-27T15:43:29.618Z,98373.52
2023-01-27T15:45:57.108Z,98378.97
2023-01-27T15:48:34.110Z,98377.77
2023-01-27T15:51:06.153Z,98377.44
2023-01-27T15:53:32.572Z,98382.72
2023-01-27T15:56:01.963Z,98380.16
2023-01-27T15:58:34.255Z,98386.48
2023-01-27T16:01:03.116Z,98393.29
2023-01-27T16:04:05.013Z,98393.47
2023-01-27T16:06:31.464Z,98397.56
2023-01-27T16:09:05.166Z,98398.09
2023-01-27T16:11:31.830Z,98405.77
2023-01-27T16:14:13.644Z,98401.52
2023-01-27T16:17:08.089Z,98403.92
2023-01-27T16:19:40.978Z,98404.29
2023-01-27T16:22:14.103Z,98408.55
2023-01-27T16:24:59.314Z,98415.53
2023-01-27T16:27:51.887Z,98419.80
2023-01-27T16:30:22.759Z,98415.87
2023-01-27T16:33:05.259Z,98423.88
2023-01-27T16:35:51.557Z,98423.55
2023-01-27T16:38:31.725Z,98425.24
2023-01-27T16:41:01.564Z,98421.15
2023-01-27T16:43:32.577Z,98425.45
2023-01-27T16:46:01.542Z,98432.27
2023-01-27T16:48:38.200Z,98431.41
2023-01-27T16:51:11.467Z,98435.69
2023-01-27T16:53:38.312Z,98432.45
2023-01-27T16:56:15.181Z,98431.11
2023-01-27T16:58:46.672Z,98442.05
2023-01-27T17:01:25.723Z,98439.51
2023-01-27T17:04:04.845Z,98444.30
2023-01-27T17:06:34.971Z,98449.77
2023-01-27T17:09:01.666Z,98445.52
2023-01-27T17:11:31.567Z,98452.20
2023-01-27T17:14:03.360Z,98453.75
2023-01-27T17:16:45.614Z,98454.95
2023-01-27T17:19:24.919Z,98456.68
2023-01-27T17:21:54.401Z,98457.38
2023-01-27T17:24:37.237Z,98461.31
2023-01-27T17:27:32.024Z,98462.84
2023-01-27T17:30:13.635Z,98454.70
2023-01-27T17:32:43.241Z,98459.63
2023-01-27T17:35:39.872Z,98466.30
2023-01-27T17:38:21.928Z,98461.88
2023-01-27T17:40:50.733Z,98464.08
2023-01-27T17:43:24.896Z,98470.55
2023-01-27T17:46:21.918Z,98464.61
2023-01-27T17:49:12.534Z,98470.08
2023-01-27T17:51:49.774Z,98466.84
2023-01-27T17:54:21.676Z,98470.92
2023-01-27T17:56:52.205Z,98465.48
2023-01-27T17:59:24.111Z,98469.23
2023-01-27T18:01:54.166Z,98471.29
2023-01-27T18:04:23.650Z,98470.79
2023-01-27T18:06:51.533Z,98478.79
2023-01-27T18:09:21.121Z,98481.00
2023-01-27T18:12:03.674Z,98482.05
2023-01-27T18:14:35.051Z,98487.52
2023-01-27T18:17:03.787Z,98493.46
2023-01-27T18:19:31.043Z,98493.65
2023-01-27T18:22:03.076Z,98498.61
2023-01-27T18:24:30.088Z,98497.58
2023-01-27T18:26:56.919Z,98504.23
2023-01-27T18:29:41.574Z,98505.09
2023-01-27T18:32:20.828Z,98502.88
2023-01-27T18:34:56.882Z,98506.13
2023-01-27T18:37:33.253Z,98507.48
2023-01-27T18:40:02.967Z,98504.92
2023-01-27T18:42:31.591Z,98504.92
2023-01-27T18:44:58.074Z,98502.71
2023-01-27T18:47:28.128Z,98501.52
2023-01-27T18:50:15.024Z,98501.02
2023-01-27T18:52:42.116Z,98500.34
2023-01-27T18:55:19.882Z,98497.11
2023-01-27T18:57:49.437Z,98497.29
2023-01-27T19:00:19.179Z,98501.05
2023-01-27T19:02:47.891Z,98501.91
2023-01-27T19:05:17.938Z,98504.63
2023-01-27T19:07:44.956Z,98509.91
2023-01-27T19:10:20.865Z,98506.50
2023-01-27T19:12:55.872Z,98510.77
2023-01-27T19:15:23.632Z,98519.30
2023-01-27T19:17:55.755Z,98522.19
2023-01-27T19:20:30.397Z,98524.41
2023-01-27T19:22:58.717Z,98525.63
2023-01-27T19:25:29.827Z,98526.47
2023-01-27T19:28:02.055Z,98524.95
2023-01-27T19:30:31.403Z,98528.52
2023-01-27T19:32:58.184Z,98524.77
2023-01-27T19:35:28.436Z,98524.11
2023-01-27T19:37:56.589Z,98524.11
2023-01-27T19:40:28.099Z,98531.77
2023-01-27T19:42:55.090Z,98525.82
2023-01-27T19:45:22.943Z,98529.56
2023-01-27T19:47:49.911Z,98526.35
2023-01-27T19:50:22.972Z,98527.71
2023-01-27T19:52:50.468Z,98526.19
2023-01-27T19:55:18.854Z,98527.05
2023-01-27T19:57:45.395Z,98528.41
2023-01-27T20:00:20.526Z,98528.25
2023-01-27T20:02:47.381Z,98528.58
2023-01-27T20:05:14.530Z,98532.33
2023-01-27T20:07:41.991Z,98529.26
2023-01-27T20:10:14.984Z,98533.02
2023-01-27T20:12:41.744Z,98533.02
2023-01-27T20:15:16.914Z,98529.28
2023-01-27T20:17:44.428Z,98534.55
2023-01-27T20:20:13.341Z,98533.88
2023-01-27T20:22:40.174Z,98535.23
2023-01-27T20:25:07.580Z,98533.52
2023-01-27T20:27:34.377Z,98537.96
2023-01-27T20:30:00.908Z,98536.45
2023-01-27T20:32:27.697Z,98537.13
2023-01-27T20:34:54.105Z,98537.30
2023-01-27T20:37:20.836Z,98533.90
2023-01-27T20:39:47.274Z,98531.66
2023-01-27T20:42:13.685Z,98532.86
2023-01-27T20:44:40.128Z,98528.78
2023-01-27T20:47:06.701Z,98533.05
2023-01-27T20:49:35.104Z,98535.44
2023-01-27T20:52:01.752Z,98533.57
2023-01-27T20:54:28.204Z,98531.02
2023-01-27T20:56:54.704Z,98532.70
2023-01-27T20:59:21.252Z,98531.17
2023-01-27T21:01:47.769Z,98534.42
2023-01-27T21:04:14.421Z,98532.89
2023-01-27T21:06:41.067Z,98539.02
2023-01-27T21:09:07.703Z,98532.02
2023-01-27T21:11:34.269Z,98536.80
2023-01-27T21:14:00.802Z,98536.63
2023-01-27T21:16:27.357Z,98534.93
2023-01-27T21:18:54.291Z,98534.77
2023-01-27T21:21:29.416Z,98534.27
2023-01-27T21:23:58.039Z,98534.77
2023-01-27T21:26:24.963Z,98537.52
2023-01-27T21:28:52.291Z,98540.56
2023-01-27T21:31:22.911Z,98537.52
2023-01-27T21:33:50.934Z,98539.72
2023-01-27T21:36:18.917Z,98542.61
2023-01-27T21:38:45.448Z,98541.93
2023-01-27T21:41:15.462Z,98541.95
2023-01-27T21:43:42.019Z,98542.13
2023-01-27T21:46:08.543Z,98540.44
2023-01-27T21:48:35.082Z,98540.09
2023-01-27T21:51:01.645Z,98540.60
2023-01-27T21:53:28.157Z,98537.38
2023-01-27T21:55:54.796Z,98537.54
2023-01-27T21:58:21.644Z,98540.08
2023-01-27T22:00:48.286Z,98540.59
2023-01-27T22:03:14.886Z,98538.55
2023-01-27T22:05:41.463Z,98539.91
2023-01-27T22:08:08.009Z,98540.42
2023-01-27T22:10:34.488Z,98543.16
2023-01-27T22:13:03.772Z,98541.29
2023-01-27T22:16:04.377Z,98543.16
2023-01-27T22:18:31.745Z,98545.21
2023-01-27T22:21:01.381Z,98546.59
2023-01-27T22:23:27.916Z,98545.91
2023-01-27T22:25:54.433Z,98544.88
2023-01-27T22:28:21.622Z,98544.19
2023-01-27T22:30:48.331Z,98543.01
2023-01-27T22:33:15.034Z,98547.42
2023-01-27T22:35:41.521Z,98542.66
2023-01-27T22:38:08.273Z,98544.20
2023-01-27T22:40:34.785Z,98543.02
2023-01-27T22:43:01.872Z,98540.81
2023-01-27T22:45:28.426Z,98537.06
2023-01-27T22:47:55.033Z,98536.05
2023-01-27T22:50:21.682Z,98536.72
2023-01-27T22:52:48.179Z,98532.30
2023-01-27T22:55:15.099Z,98531.45
2023-01-27T22:57:44.888Z,98530.61
2023-01-27T23:00:11.968Z,98527.71
2023-01-27T23:02:38.541Z,98529.42
2023-01-27T23:05:05.655Z,98526.52
2023-01-27T23:07:32.168Z,98524.15
2023-01-27T23:09:58.856Z,98524.48
2023-01-27T23:12:25.403Z,98521.75
2023-01-27T23:14:51.890Z,98523.63
2023-01-27T23:17:18.433Z,98523.13
2023-01-27T23:19:44.965Z,98525.34
2023-01-27T23:22:11.503Z,98522.80
2023-01-27T23:24:38.008Z,98528.07
2023-01-27T23:27:04.788Z,98529.27
2023-01-27T23:29:31.304Z,98522.80
2023-01-27T23:31:58.088Z,98524.33
2023-01-27T23:34:24.730Z,98522.11
2023-01-27T23:36:51.167Z,98521.42
2023-01-27T23:39:19.851Z,98518.70
2023-01-27T23:41:46.417Z,98522.45
2023-01-27T23:44:13.375Z,98521.60
2023-01-27T23:46:40.523Z,98521.10
2023-01-27T23:49:07.112Z,98525.17
2023-01-27T23:51:33.669Z,98518.21
2023-01-27T23:54:00.138Z,98522.46
2023-01-27T23:56:26.668Z,98518.54
2023-01-27T23:58:53.321Z,98520.75
